sensor_id;sensor_type;location;lat;lon;timestamp;temperature;humidity
53653;DHT22;39553;52.954;5.932;2022-07-05T00:01:01;13.20;99.90
53653;DHT22;39553;52.954;5.932;2022-07-05T00:03:27;13.20;99.90
53653;DHT22;39553;52.954;5.932;2022-07-05T00:05:54;13.20;99.90
53653;DHT22;39553;52.954;5.932;2022-07-05T00:08:20;13.20;99.90
53653;DHT22;39553;52.954;5.932;2022-07-05T00:10:45;13.10;99.90
53653;DHT22;39553;52.954;5.932;2022-07-05T00:13:11;13.10;99.90
53653;DHT22;39553;52.954;5.932;2022-07-05T00:15:37;13.00;99.90
53653;DHT22;39553;52.954;5.932;2022-07-05T00:18:03;13.00;99.90
53653;DHT22;39553;52.954;5.932;2022-07-05T00:20:31;13.00;99.90
53653;DHT22;39553;52.954;5.932;2022-07-05T00:22:56;13.10;99.90
53653;DHT22;39553;52.954;5.932;2022-07-05T00:25:22;13.10;99.90
53653;DHT22;39553;52.954;5.932;2022-07-05T00:27:48;13.10;99.90
53653;DHT22;39553;52.954;5.932;2022-07-05T00:30:14;13.20;99.90
53653;DHT22;39553;52.954;5.932;2022-07-05T00:32:40;13.10;99.90
53653;DHT22;39553;52.954;5.932;2022-07-05T00:35:07;13.10;99.90
53653;DHT22;39553;52.954;5.932;2022-07-05T00:37:34;13.10;99.90
53653;DHT22;39553;52.954;5.932;2022-07-05T00:40:00;13.10;99.90
53653;DHT22;39553;52.954;5.932;2022-07-05T00:42:26;13.10;99.90
53653;DHT22;39553;52.954;5.932;2022-07-05T00:44:52;13.20;99.90
53653;DHT22;39553;52.954;5.932;2022-07-05T00:47:18;13.20;99.90
53653;DHT22;39553;52.954;5.932;2022-07-05T00:49:43;13.10;99.90
53653;DHT22;39553;52.954;5.932;2022-07-05T00:52:11;13.10;99.90
53653;DHT22;39553;52.954;5.932;2022-07-05T00:54:38;13.00;99.90
53653;DHT22;39553;52.954;5.932;2022-07-05T00:57:05;13.00;99.90
53653;DHT22;39553;52.954;5.932;2022-07-05T00:59:31;12.90;99.90
53653;DHT22;39553;52.954;5.932;2022-07-05T01:01:58;12.90;99.90
53653;DHT22;39553;52.954;5.932;2022-07-05T01:04:24;12.90;99.90
53653;DHT22;39553;52.954;5.932;2022-07-05T01:06:53;12.80;99.90
53653;DHT22;39553;52.954;5.932;2022-07-05T01:09:20;12.80;99.90
53653;DHT22;39553;52.954;5.932;2022-07-05T01:11:48;12.70;99.90
53653;DHT22;39553;52.954;5.932;2022-07-05T01:14:20;12.70;99.90
53653;DHT22;39553;52.954;5.932;2022-07-05T01:16:46;12.70;99.90
53653;DHT22;39553;52.954;5.932;2022-07-05T01:19:13;12.80;99.90
53653;DHT22;39553;52.954;5.932;2022-07-05T01:21:46;12.90;99.90
53653;DHT22;39553;52.954;5.932;2022-07-05T01:24:14;12.90;99.90
53653;DHT22;39553;52.954;5.932;2022-07-05T01:26:42;13.00;99.90
53653;DHT22;39553;52.954;5.932;2022-07-05T01:29:09;13.00;99.90
53653;DHT22;39553;52.954;5.932;2022-07-05T01:31:37;13.00;99.90
53653;DHT22;39553;52.954;5.932;2022-07-05T01:34:04;13.00;99.90
53653;DHT22;39553;52.954;5.932;2022-07-05T01:36:30;13.00;99.90
53653;DHT22;39553;52.954;5.932;2022-07-05T01:38:56;13.00;99.90
53653;DHT22;39553;52.954;5.932;2022-07-05T01:41:21;13.00;99.90
53653;DHT22;39553;52.954;5.932;2022-07-05T01:43:47;13.00;99.90
53653;DHT22;39553;52.954;5.932;2022-07-05T01:46:15;13.00;99.90
53653;DHT22;39553;52.954;5.932;2022-07-05T01:48:42;13.10;99.90
53653;DHT22;39553;52.954;5.932;2022-07-05T01:51:16;13.10;99.90
53653;DHT22;39553;52.954;5.932;2022-07-05T01:53:44;13.00;99.90
53653;DHT22;39553;52.954;5.932;2022-07-05T01:56:12;13.00;99.90
53653;DHT22;39553;52.954;5.932;2022-07-05T01:58:38;12.90;99.90
53653;DHT22;39553;52.954;5.932;2022-07-05T02:01:04;12.80;99.90
53653;DHT22;39553;52.954;5.932;2022-07-05T02:03:31;12.70;99.90
53653;DHT22;39553;52.954;5.932;2022-07-05T02:05:57;12.70;99.90
53653;DHT22;39553;52.954;5.932;2022-07-05T02:08:28;12.60;99.90
53653;DHT22;39553;52.954;5.932;2022-07-05T02:10:54;12.60;99.90
53653;DHT22;39553;52.954;5.932;2022-07-05T02:13:20;12.50;99.90
53653;DHT22;39553;52.954;5.932;2022-07-05T02:15:47;12.50;99.90
53653;DHT22;39553;52.954;5.932;2022-07-05T02:18:13;12.40;99.90
53653;DHT22;39553;52.954;5.932;2022-07-05T02:20:40;12.40;99.90
53653;DHT22;39553;52.954;5.932;2022-07-05T02:23:06;12.50;99.90
53653;DHT22;39553;52.954;5.932;2022-07-05T02:25:33;12.50;99.90
53653;DHT22;39553;52.954;5.932;2022-07-05T02:27:59;12.60;99.90
53653;DHT22;39553;52.954;5.932;2022-07-05T02:30:25;12.60;99.90
53653;DHT22;39553;52.954;5.932;2022-07-05T02:32:50;12.60;99.90
53653;DHT22;39553;52.954;5.932;2022-07-05T02:35:16;12.70;99.90
53653;DHT22;39553;52.954;5.932;2022-07-05T02:37:42;12.70;99.90
53653;DHT22;39553;52.954;5.932;2022-07-05T02:40:09;12.70;99.90
53653;DHT22;39553;52.954;5.932;2022-07-05T02:42:36;12.70;99.90
53653;DHT22;39553;52.954;5.932;2022-07-05T02:45:02;12.60;99.90
53653;DHT22;39553;52.954;5.932;2022-07-05T02:47:32;12.50;99.90
53653;DHT22;39553;52.954;5.932;2022-07-05T02:50:02;12.90;99.90
53653;DHT22;39553;52.954;5.932;2022-07-05T02:52:28;12.40;99.90
53653;DHT22;39553;52.954;5.932;2022-07-05T02:54:54;12.30;99.90
53653;DHT22;39553;52.954;5.932;2022-07-05T02:57:20;12.30;99.90
53653;DHT22;39553;52.954;5.932;2022-07-05T02:59:46;12.20;99.90
53653;DHT22;39553;52.954;5.932;2022-07-05T03:02:11;12.20;99.90
53653;DHT22;39553;52.954;5.932;2022-07-05T03:04:37;12.30;99.90
53653;DHT22;39553;52.954;5.932;2022-07-05T03:07:03;12.40;99.90
53653;DHT22;39553;52.954;5.932;2022-07-05T03:09:29;12.50;99.90
53653;DHT22;39553;52.954;5.932;2022-07-05T03:11:54;12.60;99.90
53653;DHT22;39553;52.954;5.932;2022-07-05T03:14:20;12.60;99.90
53653;DHT22;39553;52.954;5.932;2022-07-05T03:16:46;12.60;99.90
53653;DHT22;39553;52.954;5.932;2022-07-05T03:19:12;12.60;99.90
53653;DHT22;39553;52.954;5.932;2022-07-05T03:21:37;12.50;99.90
53653;DHT22;39553;52.954;5.932;2022-07-05T03:24:03;12.40;99.90
53653;DHT22;39553;52.954;5.932;2022-07-05T03:26:29;12.30;99.90
53653;DHT22;39553;52.954;5.932;2022-07-05T03:28:55;12.30;99.90
53653;DHT22;39553;52.954;5.932;2022-07-05T03:31:21;12.30;99.90
53653;DHT22;39553;52.954;5.932;2022-07-05T03:33:46;12.20;99.90
53653;DHT22;39553;52.954;5.932;2022-07-05T03:36:12;12.20;99.90
53653;DHT22;39553;52.954;5.932;2022-07-05T03:38:38;12.20;99.90
53653;DHT22;39553;52.954;5.932;2022-07-05T03:41:04;12.20;99.90
53653;DHT22;39553;52.954;5.932;2022-07-05T03:43:29;12.30;99.90
53653;DHT22;39553;52.954;5.932;2022-07-05T03:45:55;12.40;99.90
53653;DHT22;39553;52.954;5.932;2022-07-05T03:48:21;12.60;99.90
53653;DHT22;39553;52.954;5.932;2022-07-05T03:50:47;12.70;99.90
53653;DHT22;39553;52.954;5.932;2022-07-05T03:53:13;12.80;99.90
53653;DHT22;39553;52.954;5.932;2022-07-05T03:55:39;12.90;99.90
53653;DHT22;39553;52.954;5.932;2022-07-05T03:58:05;12.90;99.90
53653;DHT22;39553;52.954;5.932;2022-07-05T04:00:31;13.00;99.90
53653;DHT22;39553;52.954;5.932;2022-07-05T04:02:57;13.10;99.90
53653;DHT22;39553;52.954;5.932;2022-07-05T04:05:23;13.30;99.90
53653;DHT22;39553;52.954;5.932;2022-07-05T04:07:52;13.50;99.90
53653;DHT22;39553;52.954;5.932;2022-07-05T04:10:19;13.80;99.90
53653;DHT22;39553;52.954;5.932;2022-07-05T04:12:45;14.10;99.90
53653;DHT22;39553;52.954;5.932;2022-07-05T04:15:13;14.30;99.90
53653;DHT22;39553;52.954;5.932;2022-07-05T04:17:50;14.50;99.90
53653;DHT22;39553;52.954;5.932;2022-07-05T04:20:16;14.80;99.90
53653;DHT22;39553;52.954;5.932;2022-07-05T04:22:42;15.10;99.90
53653;DHT22;39553;52.954;5.932;2022-07-05T04:25:08;15.00;99.90
53653;DHT22;39553;52.954;5.932;2022-07-05T04:27:51;15.10;99.90
53653;DHT22;39553;52.954;5.932;2022-07-05T04:30:19;15.10;99.90
53653;DHT22;39553;52.954;5.932;2022-07-05T04:32:45;14.80;99.90
53653;DHT22;39553;52.954;5.932;2022-07-05T04:35:11;14.60;99.90
53653;DHT22;39553;52.954;5.932;2022-07-05T04:37:41;14.50;99.90
53653;DHT22;39553;52.954;5.932;2022-07-05T04:40:09;14.90;99.90
53653;DHT22;39553;52.954;5.932;2022-07-05T04:42:35;15.60;99.90
53653;DHT22;39553;52.954;5.932;2022-07-05T04:45:01;16.20;99.90
53653;DHT22;39553;52.954;5.932;2022-07-05T04:47:27;16.70;99.90
53653;DHT22;39553;52.954;5.932;2022-07-05T04:49:54;17.00;99.90
53653;DHT22;39553;52.954;5.932;2022-07-05T04:52:19;17.10;99.90
53653;DHT22;39553;52.954;5.932;2022-07-05T04:54:45;16.90;99.90
53653;DHT22;39553;52.954;5.932;2022-07-05T04:57:11;16.60;99.90
53653;DHT22;39553;52.954;5.932;2022-07-05T04:59:37;16.30;99.90
53653;DHT22;39553;52.954;5.932;2022-07-05T05:02:03;16.00;99.90
53653;DHT22;39553;52.954;5.932;2022-07-05T05:04:29;15.90;99.90
53653;DHT22;39553;52.954;5.932;2022-07-05T05:06:54;15.80;99.90
53653;DHT22;39553;52.954;5.932;2022-07-05T05:09:21;15.80;99.90
53653;DHT22;39553;52.954;5.932;2022-07-05T05:11:48;15.80;99.90
53653;DHT22;39553;52.954;5.932;2022-07-05T05:14:14;15.70;99.90
53653;DHT22;39553;52.954;5.932;2022-07-05T05:16:40;15.70;99.90
53653;DHT22;39553;52.954;5.932;2022-07-05T05:19:05;15.70;99.90
53653;DHT22;39553;52.954;5.932;2022-07-05T05:21:31;15.70;99.90
53653;DHT22;39553;52.954;5.932;2022-07-05T05:23:57;15.70;99.90
53653;DHT22;39553;52.954;5.932;2022-07-05T05:26:23;15.70;99.90
53653;DHT22;39553;52.954;5.932;2022-07-05T05:28:49;15.80;99.90
53653;DHT22;39553;52.954;5.932;2022-07-05T05:31:14;16.00;99.90
53653;DHT22;39553;52.954;5.932;2022-07-05T05:33:40;16.00;99.90
53653;DHT22;39553;52.954;5.932;2022-07-05T05:36:06;16.20;99.90
53653;DHT22;39553;52.954;5.932;2022-07-05T05:38:32;16.20;99.90
53653;DHT22;39553;52.954;5.932;2022-07-05T05:40:58;16.20;99.90
53653;DHT22;39553;52.954;5.932;2022-07-05T05:43:25;16.20;99.90
53653;DHT22;39553;52.954;5.932;2022-07-05T05:45:54;16.20;99.90
53653;DHT22;39553;52.954;5.932;2022-07-05T05:48:19;16.10;99.90
53653;DHT22;39553;52.954;5.932;2022-07-05T05:50:48;16.10;99.90
53653;DHT22;39553;52.954;5.932;2022-07-05T05:53:14;16.10;99.90
53653;DHT22;39553;52.954;5.932;2022-07-05T05:55:40;16.20;99.90
53653;DHT22;39553;52.954;5.932;2022-07-05T05:58:14;16.20;99.90
53653;DHT22;39553;52.954;5.932;2022-07-05T06:00:41;16.10;99.90
53653;DHT22;39553;52.954;5.932;2022-07-05T06:03:07;16.10;99.90
53653;DHT22;39553;52.954;5.932;2022-07-05T06:05:33;16.20;99.90
53653;DHT22;39553;52.954;5.932;2022-07-05T06:07:59;16.40;99.90
53653;DHT22;39553;52.954;5.932;2022-07-05T06:10:29;16.50;99.90
53653;DHT22;39553;52.954;5.932;2022-07-05T06:12:58;16.60;99.90
53653;DHT22;39553;52.954;5.932;2022-07-05T06:15:24;16.80;99.90
53653;DHT22;39553;52.954;5.932;2022-07-05T06:17:50;17.10;99.90
53653;DHT22;39553;52.954;5.932;2022-07-05T06:20:26;17.40;99.90
53653;DHT22;39553;52.954;5.932;2022-07-05T06:22:53;17.40;99.90
53653;DHT22;39553;52.954;5.932;2022-07-05T06:25:19;17.50;99.90
53653;DHT22;39553;52.954;5.932;2022-07-05T06:27:49;17.80;99.90
53653;DHT22;39553;52.954;5.932;2022-07-05T06:30:16;18.30;99.90
53653;DHT22;39553;52.954;5.932;2022-07-05T06:32:43;18.40;99.90
53653;DHT22;39553;52.954;5.932;2022-07-05T06:35:10;18.20;99.90
53653;DHT22;39553;52.954;5.932;2022-07-05T06:37:43;18.00;99.90
53653;DHT22;39553;52.954;5.932;2022-07-05T06:40:11;18.00;99.90
53653;DHT22;39553;52.954;5.932;2022-07-05T06:42:39;18.30;99.90
53653;DHT22;39553;52.954;5.932;2022-07-05T06:45:06;18.60;99.90
53653;DHT22;39553;52.954;5.932;2022-07-05T06:47:33;18.90;99.90
53653;DHT22;39553;52.954;5.932;2022-07-05T06:49:59;18.90;99.90
53653;DHT22;39553;52.954;5.932;2022-07-05T06:52:24;18.70;99.90
53653;DHT22;39553;52.954;5.932;2022-07-05T06:54:50;18.50;99.90
53653;DHT22;39553;52.954;5.932;2022-07-05T06:57:22;18.00;99.90
53653;DHT22;39553;52.954;5.932;2022-07-05T06:59:49;17.80;99.90
53653;DHT22;39553;52.954;5.932;2022-07-05T07:02:15;17.70;99.90
53653;DHT22;39553;52.954;5.932;2022-07-05T07:04:42;17.80;99.90
53653;DHT22;39553;52.954;5.932;2022-07-05T07:07:08;18.30;99.90
53653;DHT22;39553;52.954;5.932;2022-07-05T07:09:56;18.40;99.90
53653;DHT22;39553;52.954;5.932;2022-07-05T07:12:25;18.30;99.90
53653;DHT22;39553;52.954;5.932;2022-07-05T07:14:51;18.40;99.90
53653;DHT22;39553;52.954;5.932;2022-07-05T07:17:16;18.90;99.90
53653;DHT22;39553;52.954;5.932;2022-07-05T07:19:42;19.20;99.90
53653;DHT22;39553;52.954;5.932;2022-07-05T07:22:08;19.30;99.90
53653;DHT22;39553;52.954;5.932;2022-07-05T07:24:33;19.60;99.90
53653;DHT22;39553;52.954;5.932;2022-07-05T07:26:59;19.50;99.90
53653;DHT22;39553;52.954;5.932;2022-07-05T07:29:33;19.40;99.90
53653;DHT22;39553;52.954;5.932;2022-07-05T07:31:59;19.10;99.90
53653;DHT22;39553;52.954;5.932;2022-07-05T07:34:28;19.00;99.90
53653;DHT22;39553;52.954;5.932;2022-07-05T07:36:54;19.20;99.90
53653;DHT22;39553;52.954;5.932;2022-07-05T07:39:21;19.40;99.90
53653;DHT22;39553;52.954;5.932;2022-07-05T07:41:47;19.70;99.90
53653;DHT22;39553;52.954;5.932;2022-07-05T07:44:13;19.90;99.90
53653;DHT22;39553;52.954;5.932;2022-07-05T07:46:39;20.20;99.90
53653;DHT22;39553;52.954;5.932;2022-07-05T07:49:06;20.50;99.90
53653;DHT22;39553;52.954;5.932;2022-07-05T07:51:32;20.60;99.80
53653;DHT22;39553;52.954;5.932;2022-07-05T07:53:58;20.70;99.90
53653;DHT22;39553;52.954;5.932;2022-07-05T07:56:25;21.00;99.50
53653;DHT22;39553;52.954;5.932;2022-07-05T07:58:51;21.10;99.90
53653;DHT22;39553;52.954;5.932;2022-07-05T08:01:17;21.20;99.90
53653;DHT22;39553;52.954;5.932;2022-07-05T08:03:43;21.30;99.80
53653;DHT22;39553;52.954;5.932;2022-07-05T08:06:10;21.40;99.50
53653;DHT22;39553;52.954;5.932;2022-07-05T08:08:37;21.50;99.90
53653;DHT22;39553;52.954;5.932;2022-07-05T08:11:05;21.30;99.60
53653;DHT22;39553;52.954;5.932;2022-07-05T08:13:31;20.70;99.70
53653;DHT22;39553;52.954;5.932;2022-07-05T08:15:57;20.10;99.90
53653;DHT22;39553;52.954;5.932;2022-07-05T08:18:24;19.60;99.90
53653;DHT22;39553;52.954;5.932;2022-07-05T08:21:11;19.30;99.60
53653;DHT22;39553;52.954;5.932;2022-07-05T08:23:56;19.10;99.90
53653;DHT22;39553;52.954;5.932;2022-07-05T08:26:22;18.90;99.90
53653;DHT22;39553;52.954;5.932;2022-07-05T08:28:48;19.20;99.90
53653;DHT22;39553;52.954;5.932;2022-07-05T08:31:14;19.70;99.90
53653;DHT22;39553;52.954;5.932;2022-07-05T08:33:40;20.20;99.90
53653;DHT22;39553;52.954;5.932;2022-07-05T08:36:05;20.80;99.90
53653;DHT22;39553;52.954;5.932;2022-07-05T08:38:31;21.10;98.60
53653;DHT22;39553;52.954;5.932;2022-07-05T08:40:57;21.10;99.10
53653;DHT22;39553;52.954;5.932;2022-07-05T08:43:24;20.50;98.20
53653;DHT22;39553;52.954;5.932;2022-07-05T08:45:53;19.70;98.60
53653;DHT22;39553;52.954;5.932;2022-07-05T08:48:19;19.40;99.90
53653;DHT22;39553;52.954;5.932;2022-07-05T08:50:46;19.70;99.90
53653;DHT22;39553;52.954;5.932;2022-07-05T08:53:24;19.70;99.90
53653;DHT22;39553;52.954;5.932;2022-07-05T08:55:50;19.10;99.90
53653;DHT22;39553;52.954;5.932;2022-07-05T08:58:16;18.60;99.90
53653;DHT22;39553;52.954;5.932;2022-07-05T09:00:42;18.60;99.90
53653;DHT22;39553;52.954;5.932;2022-07-05T09:03:08;18.70;99.90
53653;DHT22;39553;52.954;5.932;2022-07-05T09:05:44;18.80;99.90
53653;DHT22;39553;52.954;5.932;2022-07-05T09:08:14;18.80;99.90
53653;DHT22;39553;52.954;5.932;2022-07-05T09:10:43;19.40;99.90
53653;DHT22;39553;52.954;5.932;2022-07-05T09:13:09;19.60;99.90
53653;DHT22;39553;52.954;5.932;2022-07-05T09:15:39;19.80;99.90
53653;DHT22;39553;52.954;5.932;2022-07-05T09:18:05;19.40;99.90
53653;DHT22;39553;52.954;5.932;2022-07-05T09:20:31;18.90;99.90
53653;DHT22;39553;52.954;5.932;2022-07-05T09:22:57;18.60;99.90
53653;DHT22;39553;52.954;5.932;2022-07-05T09:25:27;18.50;99.90
53653;DHT22;39553;52.954;5.932;2022-07-05T09:27:57;18.50;99.90
53653;DHT22;39553;52.954;5.932;2022-07-05T09:30:41;18.70;99.90
53653;DHT22;39553;52.954;5.932;2022-07-05T09:33:12;18.80;99.90
53653;DHT22;39553;52.954;5.932;2022-07-05T09:35:39;19.10;99.90
53653;DHT22;39553;52.954;5.932;2022-07-05T09:38:07;19.00;99.90
53653;DHT22;39553;52.954;5.932;2022-07-05T09:40:52;18.90;99.90
53653;DHT22;39553;52.954;5.932;2022-07-05T09:43:20;18.80;99.90
53653;DHT22;39553;52.954;5.932;2022-07-05T09:48:19;18.60;99.90
53653;DHT22;39553;52.954;5.932;2022-07-05T09:50:45;18.80;99.90
53653;DHT22;39553;52.954;5.932;2022-07-05T09:53:11;19.00;99.90
53653;DHT22;39553;52.954;5.932;2022-07-05T09:55:40;19.10;99.90
53653;DHT22;39553;52.954;5.932;2022-07-05T09:58:06;18.90;99.90
53653;DHT22;39553;52.954;5.932;2022-07-05T10:00:32;18.70;99.90
53653;DHT22;39553;52.954;5.932;2022-07-05T10:02:58;18.50;99.90
53653;DHT22;39553;52.954;5.932;2022-07-05T10:05:30;18.40;99.90
53653;DHT22;39553;52.954;5.932;2022-07-05T10:07:58;18.30;99.90
53653;DHT22;39553;52.954;5.932;2022-07-05T10:10:32;18.90;99.90
53653;DHT22;39553;52.954;5.932;2022-07-05T10:12:59;19.80;99.90
53653;DHT22;39553;52.954;5.932;2022-07-05T10:15:26;20.40;99.90
53653;DHT22;39553;52.954;5.932;2022-07-05T10:17:54;20.60;99.90
53653;DHT22;39553;52.954;5.932;2022-07-05T10:20:32;20.90;99.90
53653;DHT22;39553;52.954;5.932;2022-07-05T10:22:58;21.20;98.30
53653;DHT22;39553;52.954;5.932;2022-07-05T10:25:27;21.00;98.60
53653;DHT22;39553;52.954;5.932;2022-07-05T10:27:54;20.70;98.30
53653;DHT22;39553;52.954;5.932;2022-07-05T10:30:23;20.00;98.80
53653;DHT22;39553;52.954;5.932;2022-07-05T10:32:49;20.00;98.80
53653;DHT22;39553;52.954;5.932;2022-07-05T10:35:18;20.40;98.90
53653;DHT22;39553;52.954;5.932;2022-07-05T10:37:45;20.10;97.90
53653;DHT22;39553;52.954;5.932;2022-07-05T10:40:12;19.70;97.80
53653;DHT22;39553;52.954;5.932;2022-07-05T10:45:28;20.60;96.50
53653;DHT22;39553;52.954;5.932;2022-07-05T10:50:53;21.30;95.80
53653;DHT22;39553;52.954;5.932;2022-07-05T10:53:22;21.30;95.80
53653;DHT22;39553;52.954;5.932;2022-07-05T11:03:54;20.80;93.70
53653;DHT22;39553;52.954;5.932;2022-07-05T11:06:31;20.40;94.40
53653;DHT22;39553;52.954;5.932;2022-07-05T11:12:13;21.40;95.00
53653;DHT22;39553;52.954;5.932;2022-07-05T11:20:00;20.80;95.60
53653;DHT22;39553;52.954;5.932;2022-07-05T11:22:27;21.20;95.70
53653;DHT22;39553;52.954;5.932;2022-07-05T11:24:53;21.30;95.10
53653;DHT22;39553;52.954;5.932;2022-07-05T11:27:20;21.20;95.30
53653;DHT22;39553;52.954;5.932;2022-07-05T11:29:52;21.10;95.70
53653;DHT22;39553;52.954;5.932;2022-07-05T11:32:34;20.70;97.80
53653;DHT22;39553;52.954;5.932;2022-07-05T11:35:19;20.10;99.20
53653;DHT22;39553;52.954;5.932;2022-07-05T11:38:14;20.00;99.90
53653;DHT22;39553;52.954;5.932;2022-07-05T11:40:41;20.10;99.60
53653;DHT22;39553;52.954;5.932;2022-07-05T11:43:06;20.00;99.90
53653;DHT22;39553;52.954;5.932;2022-07-05T11:45:34;20.00;99.90
53653;DHT22;39553;52.954;5.932;2022-07-05T11:48:01;20.20;99.90
53653;DHT22;39553;52.954;5.932;2022-07-05T11:50:34;20.60;99.90
53653;DHT22;39553;52.954;5.932;2022-07-05T11:53:00;21.10;99.60
53653;DHT22;39553;52.954;5.932;2022-07-05T11:55:28;20.70;99.00
53653;DHT22;39553;52.954;5.932;2022-07-05T11:57:55;20.40;98.50
53653;DHT22;39553;52.954;5.932;2022-07-05T12:00:35;20.80;99.10
53653;DHT22;39553;52.954;5.932;2022-07-05T12:03:09;21.10;98.00
53653;DHT22;39553;52.954;5.932;2022-07-05T12:05:37;20.90;98.10
53653;DHT22;39553;52.954;5.932;2022-07-05T12:08:03;20.40;98.40
53653;DHT22;39553;52.954;5.932;2022-07-05T12:10:29;20.10;98.80
53653;DHT22;39553;52.954;5.932;2022-07-05T12:13:14;20.20;99.10
53653;DHT22;39553;52.954;5.932;2022-07-05T12:15:40;20.10;99.20
53653;DHT22;39553;52.954;5.932;2022-07-05T12:18:07;19.90;99.40
53653;DHT22;39553;52.954;5.932;2022-07-05T12:20:38;19.80;99.20
53653;DHT22;39553;52.954;5.932;2022-07-05T12:23:05;19.80;99.10
53653;DHT22;39553;52.954;5.932;2022-07-05T12:25:32;19.70;99.30
53653;DHT22;39553;52.954;5.932;2022-07-05T12:27:59;19.80;99.20
53653;DHT22;39553;52.954;5.932;2022-07-05T12:30:28;19.80;98.30
53653;DHT22;39553;52.954;5.932;2022-07-05T12:33:08;19.80;98.10
53653;DHT22;39553;52.954;5.932;2022-07-05T12:35:43;19.70;98.70
53653;DHT22;39553;52.954;5.932;2022-07-05T12:38:12;19.60;97.40
53653;DHT22;39553;52.954;5.932;2022-07-05T12:40:41;19.60;97.50
53653;DHT22;39553;52.954;5.932;2022-07-05T12:43:11;19.80;97.90
53653;DHT22;39553;52.954;5.932;2022-07-05T12:45:42;19.80;98.20
53653;DHT22;39553;52.954;5.932;2022-07-05T12:48:09;19.90;98.10
53653;DHT22;39553;52.954;5.932;2022-07-05T12:50:47;20.10;97.30
53653;DHT22;39553;52.954;5.932;2022-07-05T12:53:13;20.30;95.50
53653;DHT22;39553;52.954;5.932;2022-07-05T12:56:02;20.40;95.50
53653;DHT22;39553;52.954;5.932;2022-07-05T12:58:52;20.60;94.60
53653;DHT22;39553;52.954;5.932;2022-07-05T13:01:27;20.50;94.70
53653;DHT22;39553;52.954;5.932;2022-07-05T13:06:54;20.50;94.00
53653;DHT22;39553;52.954;5.932;2022-07-05T13:12:18;20.40;94.00
53653;DHT22;39553;52.954;5.932;2022-07-05T13:14:53;20.30;94.00
53653;DHT22;39553;52.954;5.932;2022-07-05T13:17:23;20.30;94.90
53653;DHT22;39553;52.954;5.932;2022-07-05T13:19:52;20.30;95.40
53653;DHT22;39553;52.954;5.932;2022-07-05T13:22:18;20.40;95.60
53653;DHT22;39553;52.954;5.932;2022-07-05T13:24:44;20.40;96.00
53653;DHT22;39553;52.954;5.932;2022-07-05T13:27:11;20.20;97.50
53653;DHT22;39553;52.954;5.932;2022-07-05T13:29:38;19.90;98.00
53653;DHT22;39553;52.954;5.932;2022-07-05T13:32:05;19.70;98.50
53653;DHT22;39553;52.954;5.932;2022-07-05T13:34:30;19.50;98.80
53653;DHT22;39553;52.954;5.932;2022-07-05T13:36:58;19.60;99.30
53653;DHT22;39553;52.954;5.932;2022-07-05T13:39:24;19.70;98.30
53653;DHT22;39553;52.954;5.932;2022-07-05T13:41:52;19.60;98.60
53653;DHT22;39553;52.954;5.932;2022-07-05T13:44:18;19.60;98.50
53653;DHT22;39553;52.954;5.932;2022-07-05T13:46:44;19.70;98.60
53653;DHT22;39553;52.954;5.932;2022-07-05T13:49:10;19.90;98.60
53653;DHT22;39553;52.954;5.932;2022-07-05T13:51:36;20.10;97.60
53653;DHT22;39553;52.954;5.932;2022-07-05T13:54:02;20.00;94.50
53653;DHT22;39553;52.954;5.932;2022-07-05T13:56:28;19.80;93.90
53653;DHT22;39553;52.954;5.932;2022-07-05T13:58:55;19.60;93.30
53653;DHT22;39553;52.954;5.932;2022-07-05T14:01:22;19.50;92.90
53653;DHT22;39553;52.954;5.932;2022-07-05T14:03:56;19.70;93.70
53653;DHT22;39553;52.954;5.932;2022-07-05T14:06:27;19.60;95.70
53653;DHT22;39553;52.954;5.932;2022-07-05T14:08:53;19.60;96.90
53653;DHT22;39553;52.954;5.932;2022-07-05T14:11:19;19.30;97.10
53653;DHT22;39553;52.954;5.932;2022-07-05T14:13:45;19.20;98.70
53653;DHT22;39553;52.954;5.932;2022-07-05T14:16:10;19.10;99.90
53653;DHT22;39553;52.954;5.932;2022-07-05T14:18:36;19.00;99.90
53653;DHT22;39553;52.954;5.932;2022-07-05T14:21:02;19.00;99.90
53653;DHT22;39553;52.954;5.932;2022-07-05T14:23:28;19.10;99.90
53653;DHT22;39553;52.954;5.932;2022-07-05T14:25:54;19.00;99.90
53653;DHT22;39553;52.954;5.932;2022-07-05T14:28:20;19.10;99.90
53653;DHT22;39553;52.954;5.932;2022-07-05T14:30:46;19.40;99.90
53653;DHT22;39553;52.954;5.932;2022-07-05T14:33:14;19.60;99.90
53653;DHT22;39553;52.954;5.932;2022-07-05T14:35:40;19.50;99.90
53653;DHT22;39553;52.954;5.932;2022-07-05T14:38:07;19.40;99.90
53653;DHT22;39553;52.954;5.932;2022-07-05T14:40:33;19.30;99.90
53653;DHT22;39553;52.954;5.932;2022-07-05T14:42:59;19.00;99.90
53653;DHT22;39553;52.954;5.932;2022-07-05T14:45:26;18.90;99.90
53653;DHT22;39553;52.954;5.932;2022-07-05T14:47:53;18.80;99.90
53653;DHT22;39553;52.954;5.932;2022-07-05T14:50:19;18.70;99.90
53653;DHT22;39553;52.954;5.932;2022-07-05T14:52:47;18.70;99.90
53653;DHT22;39553;52.954;5.932;2022-07-05T14:55:13;18.60;99.90
53653;DHT22;39553;52.954;5.932;2022-07-05T14:57:39;18.70;99.90
53653;DHT22;39553;52.954;5.932;2022-07-05T15:00:08;18.70;99.90
53653;DHT22;39553;52.954;5.932;2022-07-05T15:02:34;18.70;99.90
53653;DHT22;39553;52.954;5.932;2022-07-05T15:05:00;18.70;99.90
53653;DHT22;39553;52.954;5.932;2022-07-05T15:07:26;18.80;99.90
53653;DHT22;39553;52.954;5.932;2022-07-05T15:09:52;18.80;99.90
53653;DHT22;39553;52.954;5.932;2022-07-05T15:12:18;19.00;99.90
53653;DHT22;39553;52.954;5.932;2022-07-05T15:14:44;19.10;99.90
53653;DHT22;39553;52.954;5.932;2022-07-05T15:17:12;19.20;99.90
53653;DHT22;39553;52.954;5.932;2022-07-05T15:19:38;19.00;99.90
53653;DHT22;39553;52.954;5.932;2022-07-05T15:22:08;18.90;99.90
53653;DHT22;39553;52.954;5.932;2022-07-05T15:24:34;18.90;99.90
53653;DHT22;39553;52.954;5.932;2022-07-05T15:27:00;18.80;99.90
53653;DHT22;39553;52.954;5.932;2022-07-05T15:29:27;18.60;99.90
53653;DHT22;39553;52.954;5.932;2022-07-05T15:31:55;18.50;99.90
53653;DHT22;39553;52.954;5.932;2022-07-05T15:34:21;18.40;99.90
53653;DHT22;39553;52.954;5.932;2022-07-05T15:36:47;18.30;99.90
53653;DHT22;39553;52.954;5.932;2022-07-05T15:39:12;18.10;99.90
53653;DHT22;39553;52.954;5.932;2022-07-05T15:41:38;18.00;99.90
53653;DHT22;39553;52.954;5.932;2022-07-05T15:44:05;17.90;99.90
53653;DHT22;39553;52.954;5.932;2022-07-05T15:46:31;17.90;99.90
53653;DHT22;39553;52.954;5.932;2022-07-05T15:49:16;17.80;99.90
53653;DHT22;39553;52.954;5.932;2022-07-05T15:51:42;17.90;99.90
53653;DHT22;39553;52.954;5.932;2022-07-05T15:54:08;17.80;99.90
53653;DHT22;39553;52.954;5.932;2022-07-05T15:56:34;17.80;99.90
53653;DHT22;39553;52.954;5.932;2022-07-05T15:58:59;17.90;99.90
53653;DHT22;39553;52.954;5.932;2022-07-05T16:01:25;17.80;99.90
53653;DHT22;39553;52.954;5.932;2022-07-05T16:03:51;17.80;99.90